Time;durP1;ratioP1;P1;durP2;ratioP2;P2;SDS_P1;SDS_P2;PMS_P1;PMS_P2;Temp;Humidity;BMP_temperature;BMP_pressure;BME280_temperature;BME280_humidity;BME280_pressure;Samples;Min_cycle;Max_cycle;Signal;HPM_P1;HPM_P2
2022/10/24 00:01:12;;;;;;;13.10;1.90;;;15.50;99.90;;;;;;6282127;22;20019;-83
2022/10/24 00:03:38;;;;;;;5.30;1.58;;;15.40;99.90;;;;;;6309825;22;20454;-83
2022/10/24 00:06:06;;;;;;;6.45;1.40;;;15.40;99.90;;;;;;6282406;22;20023;-83
2022/10/24 00:08:33;;;;;;;6.43;1.48;;;15.40;99.90;;;;;;6309124;22;20022;-83
2022/10/24 00:10:59;;;;;;;11.38;1.70;;;15.50;99.90;;;;;;6309568;22;20019;-83
2022/10/24 00:13:25;;;;;;;6.97;1.42;;;15.40;99.90;;;;;;6309912;22;20022;-83
2022/10/24 00:15:50;;;;;;;7.32;1.60;;;15.40;99.90;;;;;;6280819;22;20011;-82
2022/10/24 00:18:16;;;;;;;5.60;1.27;;;15.40;99.90;;;;;;6283325;22;20419;-82
2022/10/24 00:20:42;;;;;;;5.75;1.67;;;15.40;99.90;;;;;;6282146;22;20046;-83
2022/10/24 00:23:08;;;;;;;8.50;1.77;;;15.40;99.90;;;;;;6281677;22;20041;-82
2022/10/24 00:25:34;;;;;;;7.43;1.50;;;15.40;99.90;;;;;;6309848;22;20015;-83
2022/10/24 00:27:59;;;;;;;5.65;1.38;;;15.40;99.90;;;;;;6308494;22;20433;-83
2022/10/24 00:30:25;;;;;;;7.38;1.45;;;15.40;99.90;;;;;;6309298;22;20011;-83
2022/10/24 00:32:51;;;;;;;5.22;1.50;;;15.30;99.90;;;;;;6309370;22;20362;-83
2022/10/24 00:35:18;;;;;;;6.75;1.38;;;15.40;99.90;;;;;;6280832;22;20041;-83
2022/10/24 00:37:43;;;;;;;5.93;1.38;;;15.40;99.90;;;;;;6280358;22;20015;-83
2022/10/24 00:40:13;;;;;;;6.50;1.60;;;15.40;99.90;;;;;;6281100;22;20047;-83
2022/10/24 00:42:38;;;;;;;10.18;1.70;;;15.40;99.90;;;;;;6281625;22;20026;-84
2022/10/24 00:45:36;;;;;;;5.68;1.25;;;15.30;99.90;;;;;;6280210;22;20019;-82
2022/10/24 00:48:08;;;;;;;5.85;1.23;;;15.30;99.90;;;;;;6281411;22;20011;-83
2022/10/24 00:50:34;;;;;;;7.55;1.48;;;15.30;99.90;;;;;;6307496;22;20082;-83
2022/10/24 00:53:00;;;;;;;12.48;1.70;;;15.30;99.90;;;;;;6309788;22;20085;-83
2022/10/24 00:55:25;;;;;;;7.68;1.50;;;15.30;99.90;;;;;;6282878;22;20038;-83
2022/10/24 00:57:55;;;;;;;6.63;1.33;;;15.30;99.90;;;;;;6308887;22;20015;-82
2022/10/24 01:00:28;;;;;;;4.60;1.50;;;15.30;99.90;;;;;;6309426;22;20039;-83
2022/10/24 01:02:54;;;;;;;10.18;1.70;;;15.30;99.90;;;;;;6309401;22;20023;-83
2022/10/24 01:05:25;;;;;;;6.55;1.70;;;15.30;99.90;;;;;;6308750;22;20018;-83
2022/10/24 01:08:17;;;;;;;7.97;1.85;;;15.30;99.90;;;;;;6308532;22;20011;-83
2022/10/24 01:10:48;;;;;;;5.72;1.38;;;15.30;99.90;;;;;;6309868;22;20015;-83
2022/10/24 01:13:33;;;;;;;7.30;1.40;;;15.30;99.90;;;;;;6308525;22;20018;-83
2022/10/24 01:16:13;;;;;;;9.65;2.05;;;15.20;99.90;;;;;;6281484;22;20018;-82
2022/10/24 01:18:51;;;;;;;7.85;1.77;;;15.30;99.90;;;;;;6308004;22;20090;-83
2022/10/24 01:21:26;;;;;;;7.20;1.75;;;15.30;99.90;;;;;;6281367;22;20035;-83
2022/10/24 01:24:10;;;;;;;5.47;1.63;;;15.30;99.90;;;;;;6309027;22;20015;-83
2022/10/24 01:26:49;;;;;;;7.28;2.08;;;15.30;99.90;;;;;;6282266;22;20316;-83
2022/10/24 01:29:45;;;;;;;11.68;2.03;;;15.30;99.90;;;;;;6309076;22;20022;-83
2022/10/24 01:32:21;;;;;;;8.35;2.35;;;15.30;99.90;;;;;;6307729;22;20015;-83
2022/10/24 01:34:53;;;;;;;4.78;1.70;;;15.30;99.90;;;;;;6280813;22;20051;-82
2022/10/24 01:37:34;;;;;;;14.35;1.98;;;15.30;99.90;;;;;;6280528;22;20334;-82
2022/10/24 01:40:07;;;;;;;6.72;2.28;;;15.30;99.90;;;;;;6279897;22;20018;-83
2022/10/24 01:42:37;;;;;;;8.55;2.50;;;15.30;99.90;;;;;;6281232;22;20342;-82
2022/10/24 01:45:04;;;;;;;8.27;2.20;;;15.40;99.90;;;;;;6308628;22;20015;-83
2022/10/24 01:47:36;;;;;;;9.80;2.22;;;15.40;99.90;;;;;;6305845;22;20019;-82
2022/10/24 01:50:06;;;;;;;7.43;2.20;;;15.40;99.90;;;;;;6309847;22;20046;-82
2022/10/24 01:52:35;;;;;;;12.23;2.30;;;15.40;99.90;;;;;;6281184;22;20073;-83
2022/10/24 01:55:04;;;;;;;13.38;2.13;;;15.40;99.90;;;;;;6308560;22;20046;-83
2022/10/24 01:57:32;;;;;;;7.75;2.03;;;15.40;99.90;;;;;;6307311;22;20015;-82
2022/10/24 01:59:57;;;;;;;8.32;2.40;;;15.40;99.90;;;;;;6281303;22;20019;-82
2022/10/24 02:02:28;;;;;;;8.35;2.15;;;15.40;99.90;;;;;;6308533;22;20093;-83
2022/10/24 02:05:21;;;;;;;11.40;1.98;;;15.40;99.90;;;;;;6308676;22;20019;-83
2022/10/24 02:07:55;;;;;;;10.07;1.63;;;15.50;99.90;;;;;;6308391;22;20019;-82
2022/10/24 02:10:49;;;;;;;10.88;2.08;;;15.50;99.90;;;;;;6310417;22;20258;-83
2022/10/24 02:13:47;;;;;;;8.93;2.08;;;15.50;99.90;;;;;;6287894;22;20011;-83
2022/10/24 02:16:17;;;;;;;7.45;1.90;;;15.50;99.90;;;;;;6254871;22;20046;-82
2022/10/24 02:18:43;;;;;;;6.50;1.83;;;15.40;99.90;;;;;;6308585;22;20027;-82
2022/10/24 02:21:27;;;;;;;8.98;1.98;;;15.50;99.90;;;;;;6281638;22;20016;-82
2022/10/24 02:24:07;;;;;;;7.57;2.05;;;15.50;99.90;;;;;;6280360;22;20023;-83
2022/10/24 02:26:51;;;;;;;5.00;1.83;;;15.50;99.90;;;;;;6281718;22;20019;-82
2022/10/24 02:29:34;;;;;;;7.97;2.08;;;15.50;99.90;;;;;;6280022;22;20098;-83
2022/10/24 02:32:05;;;;;;;10.35;1.98;;;15.40;99.90;;;;;;6281623;22;20022;-83
2022/10/24 02:34:33;;;;;;;14.93;2.40;;;15.50;99.90;;;;;;6281534;22;20030;-83
2022/10/24 02:37:01;;;;;;;9.65;2.30;;;15.50;99.90;;;;;;6279949;22;20333;-83
2022/10/24 02:39:28;;;;;;;6.90;1.92;;;15.50;99.90;;;;;;6307621;22;20048;-83
2022/10/24 02:41:56;;;;;;;10.20;1.98;;;15.50;99.90;;;;;;6279996;22;20057;-83
2022/10/24 02:44:25;;;;;;;9.73;2.22;;;15.50;99.90;;;;;;6308743;22;20091;-82
2022/10/24 02:46:55;;;;;;;11.77;2.15;;;15.50;99.90;;;;;;6308668;22;20068;-82
2022/10/24 02:49:21;;;;;;;7.95;2.10;;;15.50;99.90;;;;;;6281465;22;20072;-82
2022/10/24 02:51:48;;;;;;;10.43;2.05;;;15.50;99.90;;;;;;6306956;22;20019;-82
2022/10/24 02:54:13;;;;;;;9.88;1.98;;;15.50;99.90;;;;;;6284011;22;20018;-83
2022/10/24 02:56:52;;;;;;;11.23;2.20;;;15.50;99.90;;;;;;6310658;22;20090;-82
2022/10/24 02:59:17;;;;;;;9.60;2.20;;;15.50;99.90;;;;;;6308511;22;20335;-83
2022/10/24 03:01:43;;;;;;;12.07;2.17;;;15.50;99.90;;;;;;6283231;22;20098;-82
2022/10/24 03:04:09;;;;;;;6.30;1.90;;;15.50;99.90;;;;;;6282318;22;20035;-82
2022/10/24 03:06:36;;;;;;;9.88;2.30;;;15.50;99.90;;;;;;6285222;22;20361;-83
2022/10/24 03:09:06;;;;;;;8.40;1.92;;;15.50;99.90;;;;;;6284140;22;20011;-82
2022/10/24 03:11:32;;;;;;;11.98;2.30;;;15.50;99.90;;;;;;6283003;22;20015;-82
2022/10/24 03:13:58;;;;;;;10.95;2.00;;;15.50;99.90;;;;;;6283394;22;20069;-82
2022/10/24 03:16:24;;;;;;;7.20;2.00;;;15.40;99.90;;;;;;6282650;22;20369;-83
2022/10/24 03:18:50;;;;;;;8.85;2.10;;;15.50;99.90;;;;;;6309345;22;20023;-82
2022/10/24 03:21:16;;;;;;;7.25;1.98;;;15.40;99.90;;;;;;6309269;22;20342;-82
2022/10/24 03:23:41;;;;;;;5.75;1.92;;;15.40;99.90;;;;;;6310970;22;20011;-83
2022/10/24 03:26:07;;;;;;;10.15;1.98;;;15.40;99.90;;;;;;6308826;22;20016;-83
2022/10/24 03:28:32;;;;;;;8.68;1.80;;;15.50;99.80;;;;;;6282074;22;20019;-82
2022/10/24 03:30:58;;;;;;;9.73;2.25;;;15.50;99.70;;;;;;6310272;22;20086;-83
2022/10/24 03:33:24;;;;;;;10.52;2.03;;;15.50;99.60;;;;;;6282338;22;20453;-83
2022/10/24 03:35:53;;;;;;;7.53;1.90;;;15.50;99.60;;;;;;6309185;22;20073;-82
2022/10/24 03:38:20;;;;;;;7.50;2.05;;;15.50;99.60;;;;;;6308806;22;20008;-82
2022/10/24 03:40:46;;;;;;;9.90;2.03;;;15.40;99.60;;;;;;6282084;22;20015;-83
2022/10/24 03:43:11;;;;;;;7.68;2.10;;;15.40;99.50;;;;;;6309983;22;20059;-83
2022/10/24 03:45:38;;;;;;;10.52;2.20;;;15.40;99.90;;;;;;6282179;22;20012;-82
2022/10/24 03:48:04;;;;;;;11.75;2.13;;;15.40;99.50;;;;;;6281687;22;20023;-82
2022/10/24 03:50:30;;;;;;;8.95;2.20;;;15.40;99.50;;;;;;6281795;22;20026;-82
2022/10/24 03:52:55;;;;;;;8.15;2.42;;;15.40;99.50;;;;;;6281159;22;20015;-83
2022/10/24 03:55:21;;;;;;;6.70;2.20;;;15.50;99.40;;;;;;6279993;22;20323;-82
2022/10/24 03:57:47;;;;;;;11.32;2.30;;;15.40;99.40;;;;;;6309161;22;20019;-82
2022/10/24 04:00:13;;;;;;;8.40;2.22;;;15.40;99.30;;;;;;6309082;22;20050;-83
2022/10/24 04:02:39;;;;;;;7.38;1.88;;;15.40;99.20;;;;;;6308354;22;20022;-82
2022/10/24 04:05:08;;;;;;;8.60;2.17;;;15.40;99.10;;;;;;6280508;22;20011;-81
2022/10/24 04:07:34;;;;;;;10.82;2.20;;;15.40;99.00;;;;;;6308633;22;20022;-82
2022/10/24 04:09:59;;;;;;;9.85;2.17;;;15.40;99.00;;;;;;6308719;22;20011;-83
2022/10/24 04:12:25;;;;;;;10.98;2.17;;;15.40;99.00;;;;;;6310267;22;20089;-83
2022/10/24 04:14:51;;;;;;;8.00;2.10;;;15.40;98.90;;;;;;6307605;22;20395;-82
2022/10/24 04:17:16;;;;;;;10.65;2.10;;;15.40;98.90;;;;;;6281596;22;20015;-82
2022/10/24 04:19:42;;;;;;;9.07;2.10;;;15.40;98.80;;;;;;6282015;22;20053;-82
2022/10/24 04:22:08;;;;;;;9.45;2.20;;;15.30;98.80;;;;;;6279905;22;20046;-82
2022/10/24 04:24:33;;;;;;;6.97;2.08;;;15.30;98.80;;;;;;6308005;22;20117;-82
2022/10/24 04:26:59;;;;;;;11.82;2.08;;;15.30;98.60;;;;;;6308036;22;20121;-82
2022/10/24 04:29:24;;;;;;;10.98;2.05;;;15.30;98.60;;;;;;6306997;22;20095;-82
2022/10/24 04:31:50;;;;;;;11.70;2.10;;;15.30;98.60;;;;;;6309081;22;20386;-82
2022/10/24 04:34:16;;;;;;;9.40;2.00;;;15.30;98.50;;;;;;6279635;22;20011;-82
2022/10/24 04:36:42;;;;;;;7.93;1.90;;;15.30;98.80;;;;;;6305890;22;20469;-81
2022/10/24 04:39:07;;;;;;;7.25;1.80;;;15.30;98.30;;;;;;6278950;22;20011;-82
2022/10/24 04:41:33;;;;;;;8.32;1.80;;;15.30;98.30;;;;;;6280738;22;20026;-82
2022/10/24 04:43:59;;;;;;;10.55;1.83;;;15.30;98.30;;;;;;6280064;22;20018;-82
2022/10/24 04:46:24;;;;;;;7.18;1.90;;;15.20;98.30;;;;;;6307649;22;20335;-83
2022/10/24 04:48:50;;;;;;;10.95;1.90;;;15.20;98.30;;;;;;6308231;22;20015;-82
2022/10/24 04:51:15;;;;;;;9.50;2.05;;;15.20;98.40;;;;;;6278562;22;20015;-83
2022/10/24 04:53:41;;;;;;;7.55;1.85;;;15.20;98.40;;;;;;6279860;22;20090;-83
2022/10/24 04:56:07;;;;;;;7.70;1.60;;;15.20;98.40;;;;;;6306402;22;20026;-84
2022/10/24 04:58:32;;;;;;;8.65;2.05;;;15.20;98.40;;;;;;6274047;22;20027;-82
2022/10/24 05:00:58;;;;;;;10.18;1.67;;;15.20;98.30;;;;;;6276991;22;20016;-82
2022/10/24 05:03:23;;;;;;;9.13;1.88;;;15.20;98.30;;;;;;6276717;22;20062;-85
2022/10/24 05:05:49;;;;;;;11.60;1.88;;;15.20;98.20;;;;;;6275580;22;20095;-82
2022/10/24 05:08:16;;;;;;;8.80;1.77;;;15.10;98.20;;;;;;6278439;22;20015;-95
2022/10/24 05:10:42;;;;;;;6.10;1.63;;;15.10;98.20;;;;;;6282308;22;20026;-96
2022/10/24 05:13:08;;;;;;;10.63;1.80;;;15.10;98.30;;;;;;6281557;22;20008;-96
2022/10/24 05:15:33;;;;;;;8.02;1.75;;;15.10;98.20;;;;;;6278606;22;20438;-94
2022/10/24 05:17:59;;;;;;;7.35;1.88;;;15.00;98.20;;;;;;6274037;22;20023;-82
2022/10/24 05:20:25;;;;;;;8.18;1.80;;;15.00;98.30;;;;;;6276931;22;20015;-81
2022/10/24 05:22:51;;;;;;;7.90;1.90;;;15.00;98.20;;;;;;6276727;22;20065;-81
2022/10/24 05:25:17;;;;;;;12.68;1.80;;;15.00;98.30;;;;;;6273586;22;20063;-81
2022/10/24 05:27:43;;;;;;;6.20;1.98;;;14.90;98.20;;;;;;6271026;22;20023;-81
2022/10/24 05:30:09;;;;;;;7.65;1.98;;;15.00;98.20;;;;;;6271533;22;20018;-82
2022/10/24 05:32:35;;;;;;;9.60;1.90;;;14.90;98.00;;;;;;6274176;22;20450;-81
2022/10/24 05:35:00;;;;;;;9.35;1.85;;;14.90;98.00;;;;;;6273269;22;20022;-81
2022/10/24 05:37:26;;;;;;;9.18;1.70;;;14.90;98.00;;;;;;6273974;22;20015;-81
2022/10/24 05:39:52;;;;;;;10.48;2.08;;;14.90;98.00;;;;;;6273267;22;20083;-81
2022/10/24 05:42:17;;;;;;;10.63;1.75;;;14.90;98.30;;;;;;6274128;22;20397;-81
2022/10/24 05:44:43;;;;;;;8.15;1.55;;;14.90;98.00;;;;;;6273734;22;20020;-81
2022/10/24 05:47:09;;;;;;;6.97;1.45;;;14.90;98.00;;;;;;6272869;22;20030;-81
2022/10/24 05:49:34;;;;;;;7.53;1.50;;;14.90;98.00;;;;;;6274426;22;20094;-82
2022/10/24 05:52:00;;;;;;;7.35;1.80;;;14.90;98.00;;;;;;6276539;22;20368;-82
2022/10/24 05:54:26;;;;;;;10.40;1.70;;;14.80;97.90;;;;;;6273483;22;20275;-82
2022/10/24 05:56:51;;;;;;;9.05;1.70;;;14.80;97.90;;;;;;6277067;22;20061;-82
2022/10/24 05:59:17;;;;;;;8.63;1.70;;;14.80;97.90;;;;;;6278024;22;20072;-82
2022/10/24 06:01:43;;;;;;;9.00;1.60;;;14.80;97.90;;;;;;6278557;22;20064;-81
2022/10/24 06:04:08;;;;;;;11.60;1.83;;;14.90;97.90;;;;;;6278367;22;20042;-82
2022/10/24 06:06:42;;;;;;;10.02;1.70;;;14.90;97.90;;;;;;6279352;22;20040;-82
2022/10/24 06:09:09;;;;;;;6.38;1.48;;;14.80;97.80;;;;;;6278229;22;20481;-83
2022/10/24 06:11:34;;;;;;;7.80;1.90;;;14.90;97.90;;;;;;6279401;22;20339;-82
2022/10/24 06:14:01;;;;;;;9.80;1.40;;;14.90;97.90;;;;;;6306311;22;20011;-83
2022/10/24 06:16:29;;;;;;;10.40;1.70;;;14.90;97.70;;;;;;6278854;22;20631;-82
2022/10/24 06:18:55;;;;;;;10.80;1.40;;;14.90;97.60;;;;;;6306602;22;20023;-83
2022/10/24 06:21:20;;;;;;;6.40;1.45;;;15.00;97.60;;;;;;6278300;22;20020;-83
2022/10/24 06:23:46;;;;;;;8.55;1.65;;;14.90;97.70;;;;;;6279606;22;20014;-82
2022/10/24 06:26:13;;;;;;;7.95;1.70;;;15.00;97.60;;;;;;6279433;22;20015;-81
2022/10/24 06:28:39;;;;;;;11.27;1.65;;;15.00;97.60;;;;;;6280133;22;20015;-81
2022/10/24 06:31:06;;;;;;;9.95;1.85;;;15.00;97.60;;;;;;6281051;22;20026;-80
2022/10/24 06:33:32;;;;;;;10.32;1.58;;;15.00;97.40;;;;;;6309472;22;20016;-82
2022/10/24 06:35:59;;;;;;;8.52;1.30;;;15.00;97.30;;;;;;6307941;22;20026;-81
2022/10/24 06:38:25;;;;;;;9.98;1.40;;;15.00;97.30;;;;;;6280619;22;20044;-82
2022/10/24 06:40:50;;;;;;;7.68;1.50;;;15.00;97.40;;;;;;6280845;22;20102;-81
2022/10/24 06:43:18;;;;;;;6.95;1.38;;;15.00;97.50;;;;;;6307563;22;20342;-81
2022/10/24 06:45:44;;;;;;;8.55;1.60;;;15.00;97.50;;;;;;6281216;22;20050;-82
2022/10/24 06:48:10;;;;;;;8.02;1.52;;;14.90;97.40;;;;;;6280478;22;20442;-81
2022/10/24 06:50:39;;;;;;;10.13;1.50;;;14.90;97.50;;;;;;6307411;22;20015;-80
2022/10/24 06:53:05;;;;;;;7.45;1.35;;;14.90;97.50;;;;;;6279927;22;20042;-81
2022/10/24 06:55:31;;;;;;;8.90;1.30;;;14.90;97.50;;;;;;6309003;22;20153;-81
2022/10/24 06:57:57;;;;;;;9.65;1.73;;;14.90;97.50;;;;;;6278861;22;20458;-81
2022/10/24 07:00:22;;;;;;;6.63;1.30;;;14.90;97.50;;;;;;6308833;22;20022;-81
2022/10/24 07:02:48;;;;;;;7.38;1.20;;;15.00;97.40;;;;;;6281742;22;20015;-81
2022/10/24 07:05:14;;;;;;;9.70;1.60;;;15.00;97.50;;;;;;6280207;22;20027;-81
2022/10/24 07:07:40;;;;;;;8.80;1.40;;;15.00;97.50;;;;;;6308930;22;20015;-80
2022/10/24 07:10:07;;;;;;;9.75;1.40;;;15.00;97.40;;;;;;6281539;22;20022;-81
2022/10/24 07:12:32;;;;;;;5.68;1.60;;;15.10;97.40;;;;;;6280427;22;20029;-81
2022/10/24 07:14:58;;;;;;;5.00;1.25;;;15.10;97.30;;;;;;6281605;22;20047;-81
2022/10/24 07:17:24;;;;;;;8.32;1.50;;;15.10;97.30;;;;;;6280162;22;20101;-81
2022/10/24 07:19:53;;;;;;;7.45;1.52;;;15.10;97.30;;;;;;6280882;22;20056;-81
2022/10/24 07:22:19;;;;;;;8.07;1.15;;;15.20;97.30;;;;;;6281180;22;20015;-80
2022/10/24 07:24:45;;;;;;;7.90;1.50;;;15.10;97.20;;;;;;6280277;22;20338;-81
2022/10/24 07:27:11;;;;;;;7.95;1.40;;;15.20;97.20;;;;;;6308380;22;20050;-81
2022/10/24 07:29:38;;;;;;;10.10;1.20;;;15.20;97.20;;;;;;6281407;22;20377;-81
2022/10/24 07:32:04;;;;;;;6.72;1.40;;;15.20;97.10;;;;;;6307328;22;20016;-81
2022/10/24 07:34:29;;;;;;;6.60;1.13;;;15.20;97.10;;;;;;6280619;22;20022;-83
2022/10/24 07:36:55;;;;;;;6.28;1.40;;;15.20;97.10;;;;;;6281302;22;20015;-89
2022/10/24 07:45:15;;;;;;;7.90;1.58;;;15.40;97.10;;;;;;6100071;23;20026;-91
2022/10/24 07:50:49;;;;;;;8.73;1.85;;;15.40;97.10;;;;;;6277934;22;20027;-93
2022/10/24 07:53:32;;;;;;;6.10;1.50;;;15.50;96.90;;;;;;6214956;22;20059;-91
2022/10/24 07:55:59;;;;;;;;;;;15.50;97.20;;;;;;6251751;22;20026;-92
2022/10/24 07:58:25;;;;;;;8.15;1.48;;;15.50;96.80;;;;;;6250951;22;19945;-94
2022/10/24 08:00:51;;;;;;;9.95;1.50;;;15.60;97.00;;;;;;6250160;22;20016;-91
2022/10/24 08:03:19;;;;;;;7.97;1.30;;;15.60;96.80;;;;;;6251106;22;20027;-90
2022/10/24 08:05:55;;;;;;;9.20;2.03;;;15.60;96.70;;;;;;6279997;22;20427;-90
2022/10/24 08:08:22;;;;;;;12.15;1.48;;;15.60;96.60;;;;;;6286172;22;20016;-91
2022/10/24 08:10:58;;;;;;;6.97;1.42;;;15.70;96.60;;;;;;6255090;22;20024;-89
2022/10/24 08:13:39;;;;;;;6.20;1.40;;;15.70;96.60;;;;;;6257646;22;20023;-90
2022/10/24 08:16:19;;;;;;;9.55;1.60;;;15.70;96.40;;;;;;6256346;22;20024;-88
2022/10/24 08:18:49;;;;;;;9.65;1.58;;;15.70;96.50;;;;;;6277128;22;20335;-88
2022/10/24 08:21:22;;;;;;;8.40;1.52;;;15.70;96.50;;;;;;6249464;22;20069;-87
2022/10/24 08:23:50;;;;;;;10.10;1.63;;;15.80;96.40;;;;;;6249697;22;20516;-87
2022/10/24 08:26:18;;;;;;;9.95;1.60;;;15.80;96.50;;;;;;6277149;22;20486;-87
2022/10/24 08:28:52;;;;;;;8.70;1.45;;;15.80;96.50;;;;;;6274753;22;20094;-87
2022/10/24 08:31:20;;;;;;;11.27;1.52;;;15.80;96.30;;;;;;6280858;22;20077;-87
2022/10/24 08:33:48;;;;;;;12.82;1.80;;;15.80;96.30;;;;;;6281069;22;20015;-87
2022/10/24 08:36:29;;;;;;;9.57;1.55;;;15.80;96.30;;;;;;6280120;22;20023;-86
2022/10/24 08:38:55;;;;;;;9.55;1.70;;;15.90;96.20;;;;;;6280971;22;20008;-87
2022/10/24 08:41:24;;;;;;;8.50;1.52;;;15.90;96.30;;;;;;6280840;22;20374;-87
2022/10/24 08:43:51;;;;;;;10.02;2.00;;;15.90;96.30;;;;;;6279646;22;20341;-87
2022/10/24 08:46:47;;;;;;;9.98;1.77;;;15.90;96.40;;;;;;6280183;22;20492;-87
2022/10/24 08:49:19;;;;;;;7.60;1.52;;;15.90;96.20;;;;;;6306821;22;20011;-87
2022/10/24 08:51:52;;;;;;;10.88;1.80;;;15.90;96.40;;;;;;6307463;22;20015;-87
2022/10/24 08:54:22;;;;;;;9.02;1.60;;;15.90;96.30;;;;;;6280065;22;20015;-87
2022/10/24 08:56:50;;;;;;;13.38;1.60;;;16.00;96.40;;;;;;6307137;22;20045;-87
2022/10/24 08:59:16;;;;;;;9.50;1.95;;;16.00;96.40;;;;;;6307711;22;20003;-87
2022/10/24 09:01:50;;;;;;;10.77;1.58;;;16.00;96.40;;;;;;6280487;22;20090;-88
2022/10/24 09:04:20;;;;;;;15.10;1.75;;;16.00;96.40;;;;;;6306916;22;20015;-88
2022/10/24 09:06:46;;;;;;;14.35;1.95;;;16.00;96.30;;;;;;6280578;22;20051;-87
2022/10/24 09:09:30;;;;;;;10.00;1.58;;;16.00;96.20;;;;;;6280182;22;20473;-88
2022/10/24 09:12:00;;;;;;;17.35;1.92;;;16.10;96.10;;;;;;6279559;22;20011;-87
2022/10/24 09:14:28;;;;;;;9.32;1.38;;;16.10;96.00;;;;;;6307975;22;20011;-87
2022/10/24 09:17:17;;;;;;;13.00;1.60;;;16.20;95.90;;;;;;6279459;22;20018;-86
2022/10/24 09:19:55;;;;;;;10.43;1.63;;;16.30;95.80;;;;;;6287684;22;20039;-88
2022/10/24 09:22:23;;;;;;;12.50;1.85;;;16.30;95.90;;;;;;6307347;22;20015;-86
2022/10/24 09:24:52;;;;;;;8.32;1.48;;;16.40;95.80;;;;;;6280080;22;20492;-92
2022/10/24 09:27:37;;;;;;;9.90;1.63;;;16.40;95.80;;;;;;6280574;22;20383;-86
2022/10/24 09:30:16;;;;;;;14.57;2.00;;;16.40;95.50;;;;;;6280415;22;20097;-89
2022/10/24 09:32:45;;;;;;;10.60;1.65;;;16.40;95.60;;;;;;6279518;22;20366;-90
2022/10/24 09:35:34;;;;;;;8.63;1.60;;;16.40;95.60;;;;;;6280052;22;20046;-90
2022/10/24 09:38:49;;;;;;;15.23;1.98;;;16.50;95.60;;;;;;6279400;22;20015;-91
2022/10/24 09:41:35;;;;;;;11.95;1.70;;;16.50;95.60;;;;;;6279813;22;20023;-89
2022/10/24 09:44:03;;;;;;;12.85;1.55;;;16.60;95.70;;;;;;6307066;22;20026;-88
2022/10/24 09:46:44;;;;;;;12.27;1.80;;;16.60;95.50;;;;;;6278910;22;20015;-88
2022/10/24 09:49:30;;;;;;;12.98;1.60;;;16.70;95.70;;;;;;6280054;22;20012;-89
2022/10/24 09:52:02;;;;;;;8.07;1.50;;;16.70;95.40;;;;;;6280522;22;20064;-88
2022/10/24 09:54:30;;;;;;;8.45;1.60;;;16.70;95.50;;;;;;6279833;22;20016;-89
2022/10/24 09:57:21;;;;;;;12.35;1.75;;;16.80;95.40;;;;;;6307951;22;20007;-88
2022/10/24 10:00:00;;;;;;;10.52;1.75;;;16.80;95.00;;;;;;6306948;22;20039;-89
2022/10/24 10:02:27;;;;;;;7.63;1.38;;;16.90;95.00;;;;;;6281448;22;20016;-88
2022/10/24 10:05:20;;;;;;;9.43;1.60;;;17.00;95.10;;;;;;6309465;22;20011;-88
2022/10/24 10:07:56;;;;;;;12.40;1.60;;;17.00;94.70;;;;;;6282146;22;20019;-90
2022/10/24 10:10:53;;;;;;;9.63;1.38;;;17.00;94.80;;;;;;6282699;22;20145;-87
2022/10/24 10:13:41;;;;;;;11.75;1.60;;;17.00;94.60;;;;;;6309088;22;20411;-88
2022/10/24 10:16:29;;;;;;;8.40;1.40;;;16.90;94.70;;;;;;6309923;22;20053;-88
2022/10/24 10:19:25;;;;;;;9.32;1.60;;;16.90;94.70;;;;;;6281806;22;20026;-88
2022/10/24 10:22:01;;;;;;;10.02;1.52;;;16.90;94.40;;;;;;6289813;22;20019;-89
2022/10/24 10:24:53;;;;;;;10.27;1.58;;;16.90;94.40;;;;;;6281741;22;20019;-91
2022/10/24 10:27:53;;;;;;;9.27;1.23;;;16.90;94.20;;;;;;6307407;22;20019;-89
2022/10/24 10:30:22;;;;;;;11.70;1.60;;;16.90;94.00;;;;;;6281575;22;20062;-89
2022/10/24 10:33:19;;;;;;;8.50;1.38;;;16.90;94.10;;;;;;6281744;22;20507;-90
2022/10/24 10:36:06;;;;;;;11.00;1.50;;;16.90;93.90;;;;;;6307746;22;20370;-90
2022/10/24 10:39:05;;;;;;;6.32;1.25;;;16.90;94.10;;;;;;6280901;22;20020;-89
2022/10/24 10:41:50;;;;;;;9.52;1.50;;;16.90;93.90;;;;;;6280468;22;20434;-90
2022/10/24 10:44:48;;;;;;;9.25;1.33;;;16.90;94.20;;;;;;6309126;22;20086;-91
2022/10/24 10:47:37;;;;;;;8.52;1.38;;;16.90;94.20;;;;;;6282603;22;20034;-91
2022/10/24 10:50:17;;;;;;;10.85;1.30;;;16.90;94.30;;;;;;6281136;22;20046;-92
2022/10/24 10:52:49;;;;;;;12.52;1.50;;;17.00;94.20;;;;;;6309014;22;20094;-91
2022/10/24 10:55:21;;;;;;;10.65;1.20;;;17.00;94.10;;;;;;6308198;22;20011;-89
2022/10/24 10:58:08;;;;;;;10.60;1.48;;;17.00;94.10;;;;;;6281336;22;20027;-91
2022/10/24 11:00:42;;;;;;;9.73;1.38;;;17.10;94.10;;;;;;6281321;22;20509;-91
2022/10/24 11:03:26;;;;;;;11.15;1.23;;;17.10;94.00;;;;;;6308279;22;20012;-89
2022/10/24 11:06:16;;;;;;;10.77;1.58;;;17.10;94.00;;;;;;6280862;22;20046;-82
2022/10/24 11:08:55;;;;;;;11.02;1.25;;;17.10;93.80;;;;;;6280699;22;20011;-82
2022/10/24 11:11:27;;;;;;;10.18;1.33;;;17.10;93.90;;;;;;6307859;22;20046;-82
2022/10/24 11:14:31;;;;;;;8.38;1.35;;;17.10;94.00;;;;;;6308697;22;20045;-82
2022/10/24 11:17:05;;;;;;;8.07;1.33;;;17.10;93.90;;;;;;6308124;22;20022;-81
2022/10/24 11:19:44;;;;;;;11.60;1.50;;;17.10;94.20;;;;;;6280903;22;20015;-82
2022/10/24 11:22:19;;;;;;;10.93;1.40;;;17.10;93.90;;;;;;6280792;22;20082;-82
2022/10/24 11:24:53;;;;;;;13.32;1.95;;;17.10;93.80;;;;;;6280333;22;20020;-82
2022/10/24 11:27:26;;;;;;;12.77;1.60;;;17.10;93.40;;;;;;6308190;22;20019;-82
2022/10/24 11:30:02;;;;;;;11.47;1.40;;;17.10;93.40;;;;;;6275707;22;20065;-82
2022/10/24 11:32:58;;;;;;;9.00;1.30;;;17.10;93.40;;;;;;6275001;22;20038;-82
2022/10/24 11:35:36;;;;;;;10.85;1.30;;;17.10;93.50;;;;;;6274094;22;20019;-82
2022/10/24 11:38:17;;;;;;;8.65;1.30;;;17.10;93.70;;;;;;6274992;22;20012;-82
2022/10/24 11:40:46;;;;;;;9.50;1.10;;;17.10;93.40;;;;;;6275718;22;20019;-82
2022/10/24 11:43:15;;;;;;;10.93;1.42;;;17.10;93.50;;;;;;6277626;22;20034;-82
2022/10/24 11:46:11;;;;;;;5.72;1.00;;;17.10;93.40;;;;;;6274513;22;20018;-82
2022/10/24 11:48:46;;;;;;;14.50;1.65;;;17.20;93.20;;;;;;6274972;22;20012;-82
2022/10/24 11:51:12;;;;;;;7.82;1.50;;;17.20;93.30;;;;;;6277220;22;20008;-82
2022/10/24 11:53:38;;;;;;;6.95;1.27;;;17.20;93.40;;;;;;6276516;22;20011;-81
2022/10/24 11:56:12;;;;;;;12.82;1.40;;;17.20;93.20;;;;;;6275974;22;20475;-82
2022/10/24 11:58:53;;;;;;;7.53;1.25;;;17.20;93.00;;;;;;6274807;22;20015;-82
2022/10/24 12:01:34;;;;;;;8.77;1.00;;;17.20;93.00;;;;;;6275483;22;20019;-82
2022/10/24 12:04:35;;;;;;;7.78;1.00;;;17.20;92.90;;;;;;6277420;22;20478;-82
2022/10/24 12:07:14;;;;;;;5.25;1.05;;;17.20;93.00;;;;;;6276540;22;20030;-82
2022/10/24 12:09:59;;;;;;;4.25;1.00;;;17.20;93.20;;;;;;6246330;22;20020;-81
2022/10/24 12:12:44;;;;;;;10.52;1.33;;;17.20;93.10;;;;;;6244609;23;20032;-83
2022/10/24 12:15:19;;;;;;;6.13;1.10;;;17.20;93.00;;;;;;6246417;22;20020;-82
2022/10/24 12:18:03;;;;;;;5.90;1.00;;;17.20;93.00;;;;;;6246755;22;20016;-81
2022/10/24 12:20:30;;;;;;;6.43;1.30;;;17.20;93.10;;;;;;6243266;23;20015;-83
2022/10/24 12:22:57;;;;;;;7.63;1.25;;;17.30;93.10;;;;;;6244020;23;20066;-82
2022/10/24 12:25:35;;;;;;;6.70;1.23;;;17.20;93.00;;;;;;6243857;23;20012;-83
2022/10/24 12:28:24;;;;;;;9.57;1.60;;;17.30;93.00;;;;;;6243629;22;20013;-84
2022/10/24 12:31:14;;;;;;;10.05;1.20;;;17.30;92.80;;;;;;6246632;22;20008;-83
2022/10/24 12:33:41;;;;;;;11.77;1.70;;;17.30;92.80;;;;;;6244678;23;20020;-83
2022/10/24 12:36:07;;;;;;;8.20;1.30;;;17.30;93.00;;;;;;6243224;23;20008;-83
2022/10/24 12:38:33;;;;;;;7.50;1.20;;;17.30;93.00;;;;;;6246084;22;20019;-83
2022/10/24 12:41:08;;;;;;;10.93;2.08;;;17.30;92.80;;;;;;6245506;22;20355;-83
2022/10/24 12:43:39;;;;;;;8.77;1.35;;;17.20;93.10;;;;;;6244454;23;20012;-83
2022/10/24 12:46:14;;;;;;;7.30;1.27;;;17.30;93.10;;;;;;6244537;23;20427;-82
2022/10/24 12:48:58;;;;;;;6.40;1.20;;;17.20;92.90;;;;;;6243590;23;20106;-83
2022/10/24 12:51:26;;;;;;;8.55;1.10;;;17.20;92.80;;;;;;6244173;23;20012;-82
2022/10/24 12:54:10;;;;;;;7.30;1.63;;;17.20;92.80;;;;;;6245396;23;20020;-82
2022/10/24 12:56:59;;;;;;;6.40;1.20;;;17.20;92.60;;;;;;6245602;23;20016;-83
2022/10/24 12:59:32;;;;;;;8.88;1.20;;;17.20;92.90;;;;;;6244166;23;20082;-83
2022/10/24 13:02:10;;;;;;;8.55;1.30;;;17.20;93.30;;;;;;6243572;23;20012;-83
2022/10/24 13:04:57;;;;;;;8.18;1.20;;;17.20;93.00;;;;;;6246455;22;20023;-83
2022/10/24 13:07:47;;;;;;;5.38;1.20;;;17.10;93.20;;;;;;6244037;23;20023;-83
2022/10/24 13:10:39;;;;;;;8.02;1.45;;;17.10;93.30;;;;;;6245407;23;20016;-83
2022/10/24 13:13:43;;;;;;;10.45;1.27;;;17.10;93.10;;;;;;6244268;23;20464;-83
2022/10/24 13:16:34;;;;;;;7.15;1.27;;;17.10;92.90;;;;;;6242993;23;20019;-83
2022/10/24 13:19:06;;;;;;;9.38;1.02;;;17.10;93.00;;;;;;6244527;23;20020;-84